• Join FlightAware (Why Join?)
  • Login
  • US Flag 
02:42AM EST


 

Airport Tracker/Info


-or-


 

Live Flight TrackerFlight Track Log ✈ N789EX ✈ 28-Oct-2013 ✈ KBFI - KBFI

Flight Track Log - Related Links

Times and Time Zones

All times are in EDT time to prevent confusion due to time zone crossing. See the N789EX flight status page for this flight to view local times or setup timezone preferences in your user account.

Time Position Orientation Groundspeed Altitude Reporting Facility
EDT Latitude Longitude Course Direction KTS MPH feet Rate Location/Type
12:00PM 47.5660 -122.3370 324° Northwest 191 220 2,400  Level FlightAware
12:01PM 47.5980 -122.3780 319° Northwest 252 290 4,000 3,120 Climbing FlightAware
12:02PM 47.6160 -122.4310 297° West 262 302 6,200 3,960 Climbing FlightAware
12:02PM 47.6490 -122.4650 325° Northwest 251 289 8,500 3,600 Climbing FlightAware
12:03PM 47.6670 -122.4710 347° North 256 295 9,300 3,540 Climbing FlightAware
12:03PM 47.7220 -122.4430 19° North 244 281 12,400 3,420 Climbing FlightAware
12:04PM 47.7620 -122.4130 27° Northeast 253 291 14,500 2,460 Climbing FlightAware
12:05PM 47.8120 -122.3750 27° Northeast 293 337 15,900 2,460 Climbing FlightAware
12:05PM 47.8550 -122.3410 28° Northeast 294 338 17,800 4,200 Climbing FlightAware
12:06PM 47.8950 -122.3070 30° Northeast 258 297 21,000 3,660 Climbing FlightAware
12:07PM 47.9390 -122.2680 31° Northeast 273 314 22,600 2,280 Climbing FlightAware
12:07PM 47.9790 -122.2360 28° Northeast 283 326 24,000 2,280 Climbing FlightAware
12:08PM 48.0240 -122.2020 27° Northeast 291 335 25,400 2,280 Climbing FlightAware
12:08PM 48.0660 -122.1650 30° Northeast 298 343 26,800 3,120 Climbing FlightAware
12:09PM 48.0980 -122.0780 61° Northeast 277 319 29,800 3,420 Climbing FlightAware
12:10PM 48.1150 -122.0220 66° East 261 300 31,500 2,580 Climbing FlightAware
12:10PM 48.1200 -121.9780 80° East 281 323 32,300 1,200 Climbing FlightAware
12:11PM 48.1150 -121.8780 94° East 293 337 33,000 660 Climbing FlightAware
12:12PM 48.1140 -121.7450 91° East 314 361 33,600 600 Climbing FlightAware
12:13PM 48.1090 -121.5960 93° East 332 382 34,400 840 Climbing FlightAware
12:14PM 48.1070 -121.5260 92° East 336 387 35,000 480 Climbing FlightAware
12:14PM 48.1030 -121.4290 93° East 342 394 35,000  Level FlightAware
12:15PM 48.0990 -121.3310 93° East 366 421 35,000  Level FlightAware
12:16PM 48.0960 -121.2280 92° East 388 447 35,000  Level FlightAware
12:16PM 48.0940 -121.1230 92° East 412 474 35,000  Level FlightAware
12:17PM 48.0930 -120.9980 91° East 438 504 35,000  Level FlightAware
12:18PM 48.0940 -120.9010 89° East 446 513 35,000  Level FlightAware
12:18PM 48.0940 -120.7680 90° East 445 512 35,000 -120 Level FlightAware
12:19PM 48.0960 -120.6530 88° East 450 518 34,900 -240 Descending FlightAware
12:19PM 48.0980 -120.5710 88° East 443 510 34,800  Descending FlightAware
12:20PM 48.1000 -120.4820 88° East 450 518 34,900 240 Climbing FlightAware
12:21PM 48.1070 -120.3380 86° East 469 540 35,100 60 Climbing FlightAware
12:21PM 48.1100 -120.2200 88° East 478 550 35,000 -120 Descending FlightAware
12:22PM 48.1120 -120.1020 89° East 484 557 35,000 60 Level FlightAware
12:23PM 48.1160 -119.9410 88° East 482 555 35,100 60 Climbing FlightAware
12:24PM 48.1080 -119.7770 94° East 487 560 35,100 60 Level FlightAware
12:24PM 48.1010 -119.6530 95° East 487 560 35,200  Climbing FlightAware
12:25PM 48.0970 -119.5470 93° East 486 559 35,100 -120 Descending FlightAware
12:26PM 48.0910 -119.3740 93° East 488 562 35,100 -120 Level FlightAware
12:26PM 48.0870 -119.2510 93° East 489 563 35,000 -120 Descending FlightAware
12:27PM 48.0830 -119.1310 93° East 485 558 35,000 -180 Level FlightAware
12:27PM 48.0780 -119.0130 94° East 490 564 34,800 -120 Descending FlightAware
12:28PM 48.0720 -118.8780 94° East 492 566 34,900 120 Climbing FlightAware
12:29PM 48.0670 -118.7490 93° East 493 567 35,000 60 Climbing FlightAware
12:29PM 48.0640 -118.6790 94° East 493 567 35,000  Level FlightAware
12:30PM 48.0610 -118.5720 92° East 493 567 35,000  Level FlightAware
12:30PM 48.0560 -118.4300 93° East 493 567 35,000  Level FlightAware
12:31PM 48.0530 -118.3640 94° East 493 567 35,000  Level FlightAware
12:31PM 48.0490 -118.2560 93° East 493 567 35,000  Level FlightAware
12:32PM 48.0460 -118.1580 93° East 493 567 35,000  Level FlightAware
12:33PM 48.0410 -118.0190 93° East 493 567 35,000  Level FlightAware
12:33PM 48.0370 -117.9120 93° East 493 567 35,000  Level FlightAware
12:34PM 48.0340 -117.8080 92° East 493 567 35,000  Level FlightAware
12:34PM 48.0310 -117.7380 94° East 493 567 35,000  Level FlightAware
12:35PM 48.0260 -117.5960 93° East 493 567 35,000  Level FlightAware
12:36PM 48.0230 -117.4920 92° East 493 567 35,000  Level FlightAware
12:36PM 48.0190 -117.3880 93° East 493 567 35,000  Level FlightAware
12:37PM 48.0140 -117.2490 93° East 493 567 35,000  Level FlightAware
12:38PM 48.0100 -117.1450 93° East 493 567 35,000  Level FlightAware
12:38PM 48.0090 -117.1100 92° East 493 567 35,000 360 Level FlightAware
12:39PM 47.7672 -116.6669 92° East 510 587 35,400 180 Climbing Seattle Center
12:40PM 47.8031 -116.4858 74° East 509 586 35,400 -240 Level Seattle Center
12:41PM 47.9161 -116.5567 337° Northwest 518 596 35,000 -180 Descending Seattle Center
12:42PM 47.9417 -116.7664 280° West 525 604 35,100 60 Climbing Seattle Center
12:43PM 47.9592 -116.9817 277° West 529 609 35,200  Climbing Seattle Center
12:44PM 47.9764 -117.1961 277° West 528 608 35,100 -60 Descending Seattle Center
12:45PM 47.9933 -117.4139 277° West 532 612 35,100  Level Seattle Center
12:46PM 48.0139 -117.6786 277° West 537 618 35,100  Level Seattle Center
12:52PM 48.0870 -118.9710 277° West 547 629 35,200  Climbing FlightAware
12:52PM 48.0930 -119.1150 274° West 548 631 35,200  Level FlightAware
12:53PM 48.0960 -119.1970 273° West 551 634 35,200 60 Level FlightAware
12:53PM 48.1010 -119.3340 273° West 551 634 35,300 60 Climbing FlightAware
12:54PM 48.1060 -119.4870 273° West 549 632 35,300 -120 Level FlightAware
12:55PM 48.1090 -119.6060 272° West 549 632 35,200 -180 Descending FlightAware
12:56PM 48.1140 -119.8570 272° West 549 632 35,100 -240 Descending FlightAware
12:56PM 48.1160 -119.9720 272° West 551 634 34,900 -120 Descending FlightAware
12:57PM 48.1170 -120.0990 271° West 552 635 35,000 60 Climbing FlightAware
12:57PM 48.1170 -120.2160 270° West 554 638 35,000 60 Level FlightAware
12:58PM 48.1170 -120.3150 270° West 554 638 35,100 60 Climbing FlightAware
12:58PM 48.1150 -120.4810 269° West 560 644 35,100 120 Level FlightAware
12:59PM 48.1140 -120.6250 269° West 556 640 35,300 60 Climbing FlightAware
01:00PM 48.1170 -120.7580 272° West 562 647 35,200  Descending FlightAware
01:00PM 48.1190 -120.8660 272° West 562 647 35,300 300 Climbing FlightAware
01:01PM 48.1250 -121.0210 273° West 554 638 35,600 60 Climbing FlightAware
01:02PM 48.1360 -121.2520 274° West 545 627 35,500 -180 Descending FlightAware
01:03PM 48.1530 -121.4880 276° West 549 632 35,300 -120 Descending FlightAware
01:04PM 48.1660 -121.6490 277° West 536 617 35,300 -180 Level FlightAware
01:04PM 48.1770 -121.7800 277° West 512 589 35,100 -300 Descending FlightAware
01:05PM 48.1350 -121.9040 243° Southwest 571 657 35,000 -120 Descending FlightAware
01:05PM 48.0480 -121.9430 197° South 563 648 35,000  Level FlightAware
01:06PM 47.9840 -121.9190 166° South 531 611 35,000 120 Level FlightAware
01:07PM 47.9250 -121.7880 124° Southeast 408 470 35,200 360 Climbing FlightAware
01:07PM 47.9130 -121.6830 100° East 399 459 35,600 840 Climbing FlightAware
01:08PM 47.9140 -121.6020 89° East 394 453 36,200 1,980 Climbing FlightAware
01:08PM 47.9190 -121.5120 85° East 368 423 37,800 1,680 Climbing FlightAware
01:09PM 47.9220 -121.4220 87° East 378 435 38,200 540 Climbing FlightAware
01:10PM 47.9270 -121.2390 88° East 392 451 38,800 660 Climbing FlightAware
01:11PM 47.9290 -121.1330 88° East 393 452 39,400 900 Climbing FlightAware
01:11PM 47.9310 -121.0670 87° East 392 451 39,800 360 Climbing FlightAware
01:12PM 47.9320 -120.9360 89° East 405 466 39,900 120 Climbing FlightAware
01:12PM 47.9330 -120.8470 89° East 409 471 40,000 60 Climbing FlightAware
01:13PM 47.9330 -120.7430 90° East 414 476 40,000  Level FlightAware
01:14PM 47.9330 -120.6430 90° East 413 475 40,000 60 Level FlightAware
01:14PM 47.9330 -120.5910 90° East 411 473 40,100 -120 Climbing FlightAware
01:15PM 47.9350 -120.4380 89° East 414 476 39,900 -180 Descending FlightAware
01:15PM 47.9350 -120.3420 90° East 417 480 39,900 60 Level FlightAware
01:16PM 47.9360 -120.2270 89° East 414 476 40,000 60 Climbing FlightAware
01:17PM 47.9360 -120.1400 90° East 417 480 40,000  Level FlightAware
01:17PM 47.9380 -120.0400 88° East 423 487 40,000 60 Level FlightAware
01:18PM 47.9400 -119.9440 88° East 423 487 40,100 120 Climbing FlightAware
01:19PM 47.9420 -119.8140 89° East 430 495 40,200 60 Climbing FlightAware
01:19PM 47.9460 -119.6800 87° East 429 494 40,200 -120 Level FlightAware
01:20PM 47.9500 -119.5950 86° East 431 496 40,100 -240 Descending FlightAware
01:20PM 47.9550 -119.4880 86° East 424 488 40,000 -180 Descending FlightAware
01:21PM 47.9600 -119.3950 85° East 420 483 39,900  Descending FlightAware
01:22PM 47.9680 -119.2780 84° East 423 487 40,000 60 Climbing FlightAware
01:22PM 47.9750 -119.1780 84° East 426 490 40,000  Level FlightAware
01:23PM 47.9870 -119.0220 83° East 431 496 40,000 60 Level FlightAware
01:24PM 47.9970 -118.9140 82° East 430 495 40,100  Climbing FlightAware
01:24PM 48.0130 -118.7630 81° East 428 493 40,000 -180 Descending FlightAware
01:25PM 48.0170 -118.6120 88° East 438 504 39,800 -180 Descending FlightAware
01:26PM 48.0000 -118.4960 102° East 442 509 39,800 120 Level FlightAware
01:27PM 47.9810 -118.3730 103° East 447 514 40,000 120 Climbing FlightAware
01:27PM 47.9600 -118.2500 104° East 446 513 40,000  Level FlightAware
01:28PM 47.9340 -118.0930 104° East 446 513 40,000  Level FlightAware
01:29PM 47.9180 -118.0010 105° East 446 513 40,000  Level FlightAware
01:30PM 47.8980 -117.8800 104° East 446 513 40,000  Level FlightAware
01:30PM 47.8880 -117.8190 104° East 446 513 40,000  Level FlightAware
01:31PM 47.8620 -117.6610 104° East 446 513 40,000  Level FlightAware
01:32PM 47.8400 -117.5350 105° East 446 513 40,000  Level FlightAware
01:33PM 47.8250 -117.4430 104° East 446 513 40,000  Level FlightAware
01:34PM 47.8000 -117.2940 104° East 446 513 40,000  Level FlightAware
01:34PM 47.7850 -117.2030 104° East 446 513 40,000  Level FlightAware
01:35PM 47.7690 -117.1110 104° East 446 513 40,000  Level FlightAware
01:35PM 47.7590 -117.0510 104° East 446 513 40,000  Level FlightAware
01:36PM 47.7430 -116.9570 104° East 446 513 40,000  Level FlightAware
01:36PM 47.7290 -116.8680 103° East 446 513 40,000  Level FlightAware
01:37PM 47.7130 -116.7770 105° East 446 513 40,000  Level FlightAware
01:37PM 47.7080 -116.7470 104° East 446 513 40,000 120 Level FlightAware
01:38PM 47.7908 -116.4089 104° East 447 514 40,100 -180 Climbing Seattle Center
01:39PM 47.7458 -116.1942 107° East 454 522 39,800 -60 Descending Seattle Center
01:40PM 47.7078 -116.0161 108° East 453 521 40,000 60 Climbing Seattle Center
01:41PM 47.6686 -115.8375 108° East 455 524 40,000  Level Seattle Center
01:42PM 47.6617 -115.6706 93° East 452 520 40,000  Level Seattle Center
01:43PM 47.7603 -115.6044 24° Northeast 435 501 40,000  Level Seattle Center
01:44PM 47.8119 -115.7603 296° West 461 531 40,000 -60 Level Seattle Center
01:45PM 47.7317 -115.9117 232° Southwest 474 545 39,900  Descending Seattle Center
01:46PM 47.6878 -116.0906 250° West 474 545 40,000  Climbing Seattle Center
01:47PM 47.7125 -116.2742 281° West 461 531 40,000  Level Seattle Center
01:48PM 47.7306 -116.4636 278° West 466 536 40,000  Level Seattle Center
01:49PM 47.7525 -116.6558 280° West 473 544 40,000  Level Seattle Center
01:50PM 47.7872 -116.8819 283° West 475 547 40,100  Climbing Seattle Center
01:51PM 47.7978 -117.0711 275° West 482 555 40,000 -60 Descending Seattle Center
01:52PM 47.7772 -117.2628 261° West 486 559 40,000  Level Seattle Center
01:57PM 47.8390 -118.3270 261° West 483 556 40,000  Level FlightAware
01:59PM 47.8590 -118.5620 277° West 483 556 40,000  Level FlightAware
01:59PM 47.8680 -118.6670 277° West 481 554 40,100  Climbing FlightAware
02:00PM 47.8770 -118.7690 278° West 485 558 40,000 -120 Descending FlightAware
02:01PM 47.8980 -118.9880 278° West 480 552 40,000 -60 Level FlightAware
02:01PM 47.9090 -119.1150 277° West 479 551 39,900 60 Descending FlightAware
02:02PM 47.9190 -119.2340 277° West 485 558 40,100 60 Climbing FlightAware
02:03PM 47.9290 -119.3560 277° West 498 573 40,000  Descending FlightAware
02:03PM 47.9420 -119.5140 277° West 515 593 40,100  Climbing FlightAware
02:04PM 47.9480 -119.6450 274° West 517 595 40,000 -180 Descending FlightAware
02:05PM 47.9520 -119.8020 272° West 522 601 39,900  Descending FlightAware
02:06PM 47.9610 -120.0470 273° West 511 588 40,000 120 Climbing FlightAware
02:07PM 47.9780 -120.2750 276° West 515 593 40,200  Climbing FlightAware
02:08PM 47.9870 -120.4440 275° West 514 592 40,100 -240 Descending FlightAware
02:08PM 47.9920 -120.5540 274° West 518 596 39,900 60 Descending FlightAware
02:09PM 48.0140 -120.7600 279° West 507 583 40,200 120 Climbing FlightAware
02:10PM 48.0290 -120.8790 281° West 507 583 40,100 -120 Descending FlightAware
02:10PM 48.0410 -120.9760 281° West 507 583 40,100 60 Level FlightAware
02:11PM 48.0560 -121.1450 278° West 523 602 40,200  Climbing FlightAware
02:12PM 48.0460 -121.2820 264° West 519 597 40,100  Descending FlightAware
02:12PM 48.0350 -121.3910 261° West 531 611 40,200 60 Climbing FlightAware
02:13PM 48.0230 -121.5070 261° West 529 609 40,200  Level FlightAware
02:13PM 48.0080 -121.6390 260° West 518 596 40,200 -240 Level FlightAware
02:14PM 48.0240 -121.7550 282° West 433 498 39,900 -180 Descending FlightAware
02:15PM 48.0700 -121.7910 332° Northwest 380 437 40,000 60 Climbing FlightAware
02:15PM 48.1240 -121.7260 39° Northeast 406 467 40,000 -120 Level FlightAware
02:16PM 48.1170 -121.6230 96° East 449 517 39,900  Descending FlightAware
02:16PM 48.1120 -121.5230 94° East 438 504 40,000 60 Climbing FlightAware
02:17PM 48.1060 -121.3510 93° East 450 518 40,000  Level FlightAware
02:18PM 48.1010 -121.2460 94° East 451 519 40,000  Level FlightAware
02:18PM 48.0960 -121.1440 94° East 453 521 40,000 60 Level FlightAware
02:19PM 48.0930 -121.0670 93° East 454 522 40,100 60 Climbing FlightAware
02:19PM 48.0880 -120.9540 94° East 448 516 40,100 60 Level FlightAware
02:20PM 48.0840 -120.8490 93° East 447 514 40,200  Climbing FlightAware
02:21PM 48.0810 -120.6360 91° East 451 519 40,200 -120 Level FlightAware
02:22PM 48.0810 -120.5230 90° East 442 509 40,000 -240 Descending FlightAware
02:22PM 48.0820 -120.4470 89° East 441 507 40,000 60 Level FlightAware
02:23PM 48.0780 -120.3150 93° East 458 527 40,100  Climbing FlightAware
02:23PM 48.0640 -120.2080 101° East 472 543 40,000 -180 Descending FlightAware
02:24PM 48.0280 -120.0500 109° East 470 541 39,900 -120 Descending FlightAware
02:25PM 47.9960 -119.9290 112° Southeast 474 545 39,900  Level FlightAware
02:26PM 47.9370 -119.7340 114° Southeast 481 554 40,000 180 Climbing FlightAware
02:26PM 47.9140 -119.6690 118° Southeast 483 556 40,200 240 Climbing FlightAware
02:27PM 47.8630 -119.5240 118° Southeast 479 551 40,300  Climbing FlightAware
02:28PM 47.8410 -119.4160 107° East 462 532 40,200 -180 Descending FlightAware
02:28PM 47.8300 -119.2960 98° East 466 536 40,100 -180 Descending FlightAware
02:29PM 47.8190 -119.1760 98° East 464 534 40,000 -120 Descending FlightAware
02:30PM 47.8110 -119.0770 97° East 463 533 40,000 60 Level FlightAware
02:30PM 47.8040 -118.9780 96° East 463 533 40,100  Climbing FlightAware
02:31PM 47.7980 -118.8830 95° East 463 533 40,000 -120 Descending FlightAware
02:31PM 47.7930 -118.7680 94° East 458 527 40,000 -120 Level FlightAware
02:32PM 47.7880 -118.6660 94° East 456 525 39,900 -180 Descending FlightAware
02:32PM 47.7850 -118.5570 92° East 452 520 39,800  Descending FlightAware
02:33PM 47.7840 -118.4700 91° East 454 522 39,900 120 Climbing FlightAware
02:34PM 47.7800 -118.3330 92° East 455 524 40,000 60 Climbing FlightAware
02:34PM 47.7780 -118.2990 95° East 457 526 40,000  Level FlightAware
02:35PM 47.7750 -118.1650 92° East 457 526 40,000  Level FlightAware
02:35PM 47.7720 -118.0340 92° East 457 526 40,000  Level FlightAware
02:36PM 47.7700 -117.9430 92° East 457 526 40,000  Level FlightAware
02:37PM 47.7670 -117.8150 92° East 457 526 40,000  Level FlightAware
02:37PM 47.7650 -117.7510 93° East 457 526 40,000  Level FlightAware
02:38PM 47.7630 -117.6520 92° East 457 526 40,000  Level FlightAware
02:39PM 47.7590 -117.4890 92° East 457 526 40,000  Level FlightAware
02:40PM 47.7560 -117.3610 92° East 457 526 40,000  Level FlightAware
02:40PM 47.7540 -117.2620 92° East 457 526 40,000  Level FlightAware
02:41PM 47.7500 -117.1020 92° East 457 526 40,000  Level FlightAware
02:42PM 47.7480 -117.0060 92° East 457 526 40,000  Level FlightAware
02:43PM 47.7430 -116.8160 92° East 457 526 40,000  Level FlightAware
02:43PM 47.7420 -116.7460 91° East 457 526 40,000 -120 Level FlightAware
02:44PM 47.7086 -116.3661 91° East 468 539 39,900  Descending Seattle Center
02:45PM 47.6881 -116.1725 99° East 472 543 40,000  Climbing Seattle Center
02:46PM 47.6694 -115.9792 98° East 474 545 40,000  Level Seattle Center
02:47PM 47.7356 -115.8336 56° Northeast 462 532 40,000 -60 Level Seattle Center
02:48PM 47.8519 -115.8958 340° North 485 558 39,900  Descending Seattle Center
02:49PM 47.8506 -116.1003 269° West 524 603 40,000  Climbing Seattle Center
02:50PM 47.8483 -116.3550 269° West 520 598 40,000  Level Seattle Center
02:51PM 47.8586 -116.5719 274° West 526 605 40,000 -60 Level Seattle Center
02:52PM 47.8697 -116.7886 274° West 531 611 39,900 -180 Descending Seattle Center
02:53PM 47.8806 -117.0061 274° West 534 615 39,700 -180 Descending Seattle Center
02:54PM 47.8956 -117.2236 276° West 535 616 39,600  Descending Seattle Center
03:00PM 48.0480 -118.5100 276° West 541 623 39,700  Climbing FlightAware
03:00PM 48.0540 -118.6210 275° West 543 625 39,700  Level FlightAware
03:01PM 48.0620 -118.8080 274° West 546 628 39,700  Level FlightAware
03:02PM 48.0650 -118.9930 271° West 547 629 39,700 60 Level FlightAware
03:03PM 48.0650 -119.1060 270° West 548 631 39,800 60 Climbing FlightAware
03:03PM 48.0630 -119.2360 269° West 549 632 39,800  Level FlightAware
03:04PM 48.0480 -119.4370 264° West 558 642 39,800 60 Level FlightAware
03:05PM 48.0030 -119.5250 233° Southwest 560 644 39,900 180 Climbing FlightAware
03:05PM 47.9230 -119.5660 199° South 542 624 40,000 180 Climbing FlightAware
03:06PM 47.8500 -119.5280 161° South 513 590 40,100 300 Climbing FlightAware
03:06PM 47.8140 -119.4580 127° Southeast 488 562 40,300 -240 Climbing FlightAware
03:07PM 47.8020 -119.3620 101° East 481 554 39,900 -480 Descending FlightAware
03:07PM 47.7970 -119.2370 93° East 485 558 39,800  Descending FlightAware
03:08PM 47.7940 -119.1150 92° East 480 552 39,900 60 Climbing FlightAware
03:09PM 47.7910 -118.9750 92° East 480 552 39,900  Level FlightAware
03:09PM 47.7900 -118.8680 91° East 480 552 39,900 -120 Level FlightAware
03:10PM 47.7890 -118.6580 90° East 481 554 39,800 -120 Descending FlightAware
03:11PM 47.7910 -118.5680 88° East 480 552 39,800 120 Level FlightAware
03:11PM 47.7950 -118.3980 88° East 475 547 40,000  Climbing FlightAware
03:12PM 47.8020 -118.2110 87° East 477 549 39,800 -180 Descending FlightAware
03:13PM 47.8070 -118.1110 86° East 477 549 39,800  Level FlightAware
03:14PM 47.8110 -118.0110 87° East 477 549 39,800  Level FlightAware
03:14PM 47.8160 -117.9100 86° East 477 549 39,800  Level FlightAware
03:15PM 47.8190 -117.8430 86° East 477 549 39,800  Level FlightAware
03:15PM 47.8240 -117.7400 86° East 477 549 39,800  Level FlightAware
03:16PM 47.8290 -117.6340 86° East 477 549 39,800  Level FlightAware
03:16PM 47.8320 -117.5650 86° East 477 549 39,800  Level FlightAware
03:17PM 47.8370 -117.4640 86° East 477 549 39,800  Level FlightAware
03:18PM 47.8430 -117.3330 86° East 477 549 39,800  Level FlightAware
03:18PM 47.8460 -117.2640 86° East 477 549 39,800  Level FlightAware
03:19PM 47.8510 -117.1630 86° East 477 549 39,800  Level FlightAware
03:20PM 47.8570 -117.0290 86° East 477 549 39,800  Level FlightAware
03:20PM 47.8620 -116.9290 86° East 477 549 39,800  Level FlightAware
03:21PM 47.8670 -116.8280 86° East 477 549 39,800  Level FlightAware
03:21PM 47.8710 -116.7280 87° East 477 549 39,800  Level FlightAware
03:22PM 47.8750 -116.6580 85° East 477 549 39,800  Level FlightAware
03:22PM 47.8760 -116.6250 87° East 477 549 39,800 -120 Level FlightAware
03:23PM 47.6886 -116.1622 87° East 494 568 39,700 -60 Descending Seattle Center
03:24PM 47.6928 -115.9617 88° East 501 577 39,700 180 Level Seattle Center
03:25PM 47.7997 -115.8683 30° Northeast 491 565 40,100 240 Climbing Seattle Center
03:26PM 47.8867 -116.0106 312° West 515 593 40,200 -120 Climbing Seattle Center
03:27PM 47.9078 -116.2242 278° West 526 605 39,900 -300 Descending Seattle Center
03:28PM 47.9203 -116.4436 275° West 533 613 39,700 -60 Descending Seattle Center
03:29PM 47.9328 -116.6636 275° West 537 618 39,800  Climbing Seattle Center
03:30PM 47.9467 -116.9228 275° West 533 613 39,800  Level Seattle Center
03:31PM 47.9542 -117.1419 273° West 534 615 39,800  Level Seattle Center
03:32PM 47.9614 -117.3628 273° West 538 619 39,800 -60 Level Seattle Center
03:33PM 47.9650 -117.5847 271° West 541 623 39,700  Descending Seattle Center
03:38PM 47.9180 -118.8600 271° West 535 616 39,900  Climbing FlightAware
03:39PM 47.9240 -118.9380 277° West 535 616 39,900  Level FlightAware
03:39PM 47.9330 -119.0440 277° West 535 616 39,900 -120 Level FlightAware
03:40PM 47.9490 -119.1990 279° West 473 544 39,800 -2,220 Descending FlightAware
03:41PM 47.9610 -119.3220 278° West 469 540 37,000 -4,020 Descending FlightAware
03:42PM 47.9820 -119.5450 278° West 437 503 32,400 -3,840 Descending FlightAware
03:43PM 47.9910 -119.6430 278° West 427 491 30,300 -3,600 Descending FlightAware
03:43PM 48.0010 -119.7490 278° West 407 468 28,200 -3,300 Descending FlightAware
03:44PM 48.0090 -119.8310 278° West 389 448 26,600 -3,420 Descending FlightAware
03:44PM 48.0200 -119.9490 278° West 374 430 23,900 -3,360 Descending FlightAware
03:46PM 48.0340 -120.1280 277° West 365 420 20,100 -2,160 Descending FlightAware
03:46PM 48.0400 -120.2210 276° West 394 453 20,000 -120 Descending FlightAware
03:47PM 48.0450 -120.3150 275° West 398 458 20,000 240 Level FlightAware
03:48PM 48.0510 -120.4900 273° West 398 458 20,400  Climbing FlightAware
03:48PM 48.0540 -120.5680 273° West 400 460 20,000 -540 Descending FlightAware
03:49PM 48.0600 -120.6550 276° West 402 463 19,900 -120 Descending FlightAware
03:49PM 48.0660 -120.7330 277° West 402 463 19,900 120 Level FlightAware
03:50PM 48.0690 -120.7820 275° West 406 467 20,000 60 Climbing FlightAware
03:50PM 48.0140 -120.8610 224° Southwest 404 465 20,000  Level FlightAware
03:51PM 47.9670 -120.7890 134° Southeast 361 415 20,000  Level FlightAware
03:52PM 47.9720 -120.6960 85° East 370 426 20,000 -120 Level FlightAware
03:52PM 47.9780 -120.5900 85° East 374 430 19,900  Descending FlightAware
03:53PM 47.9840 -120.4920 85° East 374 430 20,000 120 Climbing FlightAware
03:54PM 47.9870 -120.3350 88° East 382 440 20,100 120 Climbing FlightAware
03:54PM 47.9870 -120.2620 90° East 375 432 20,200  Climbing FlightAware
03:55PM 47.9850 -120.1690 92° East 376 433 20,100 -120 Descending FlightAware
03:56PM 47.9820 -120.0960 93° East 380 437 20,100  Level FlightAware
03:56PM 47.9810 -120.0470 92° East 376 433 20,100  Level FlightAware
03:57PM 47.9770 -119.9370 93° East 376 433 20,100  Level FlightAware
03:57PM 47.9730 -119.8350 93° East 376 433 20,100  Level FlightAware
03:58PM 47.9700 -119.7540 93° East 376 433 20,100  Level FlightAware
03:58PM 47.9680 -119.7010 93° East 376 433 20,100  Level FlightAware
03:59PM 47.9660 -119.6190 92° East 376 433 20,100  Level FlightAware
04:00PM 47.9630 -119.5400 93° East 376 433 20,100 -120 Level FlightAware
04:00PM 47.9631 -119.3436 93° East 381 438 20,000 -120 Descending Seattle Center
04:01PM 47.9800 -119.1903 81° East 378 435 19,900 60 Descending Seattle Center
04:03PM 47.9786 -119.0372 91° East 379 436 20,200 60 Climbing Seattle Center
04:04PM 47.9153 -118.9097 127° Southeast 383 441 20,100 -180 Descending Seattle Center
04:05PM 47.8900 -118.7592 104° East 384 442 19,900  Descending Seattle Center
04:06PM 47.8731 -118.6056 99° East 378 435 20,100  Climbing Seattle Center
04:07PM 47.8550 -118.4489 100° East 382 440 19,900 -240 Descending Seattle Center
04:08PM 47.8339 -118.2969 102° East 377 434 19,700  Descending Seattle Center
04:09PM 47.8117 -118.1122 100° East 379 436 19,900 120 Climbing Seattle Center
04:10PM 47.7942 -117.9608 100° East 374 430 20,000  Climbing Seattle Center
04:11PM 47.7783 -117.8039 98° East 381 438 20,000 -60 Level Seattle Center
04:12PM 47.7642 -117.6369 97° East 403 464 19,900  Descending Seattle Center
04:13PM 47.7531 -117.4675 96° East 409 471 20,000  Climbing Seattle Center
04:14PM 47.7381 -117.2997 98° East 409 471 20,000 60 Level Seattle Center
04:15PM 47.7281 -117.1278 95° East 412 474 20,200  Climbing Seattle Center
04:16PM 47.7219 -116.9556 93° East 411 473 20,000 -300 Descending Seattle Center
04:17PM 47.7078 -116.7872 97° East 408 470 19,700  Descending Seattle Center
04:18PM 47.6808 -116.6253 104° East 408 470 20,000 60 Climbing Seattle Center
04:19PM 47.5878 -116.6647 196° South 419 482 19,900  Descending Seattle Center
04:20PM 47.6075 -116.8442 279° West 447 514 20,000  Climbing Seattle Center
04:21PM 47.6431 -117.0208 287° West 459 528 20,000  Level Seattle Center
04:22PM 47.6828 -117.2319 286° West 460 529 20,000 -120 Level Seattle Center
04:23PM 47.7164 -117.4081 286° West 453 521 19,800  Descending Seattle Center
04:24PM 47.7478 -117.5875 285° West 452 520 20,000 60 Climbing Seattle Center
04:25PM 47.7603 -117.7742 276° West 454 522 20,000  Level Seattle Center
04:26PM 47.7728 -117.9622 276° West 458 527 20,000  Level Seattle Center
04:27PM 47.7922 -118.1472 279° West 456 525 20,000  Level Seattle Center
04:28PM 47.8142 -118.3328 280° West 456 525 20,100  Climbing Seattle Center
04:29PM 47.8378 -118.5169 281° West 456 525 20,100 -120 Level Seattle Center
04:30PM 47.8600 -118.7014 280° West 456 525 19,900 -180 Descending Seattle Center
04:31PM 47.8581 -118.8911 269° West 456 525 19,800  Descending Seattle Center
04:32PM 47.8664 -119.0767 274° West 453 521 20,000  Climbing Seattle Center
04:37PM 47.9430 -120.1300 274° West 458 527 20,100  Climbing FlightAware
04:38PM 47.9460 -120.2340 273° West 450 518 20,000 -120 Descending FlightAware
04:39PM 47.9620 -120.3450 282° West 449 517 20,000  Level FlightAware
04:39PM 48.0260 -120.4100 326° Northwest 438 504 20,000  Level FlightAware
04:40PM 48.0750 -120.3550 37° Northeast 427 491 20,000 -180 Level FlightAware
04:40PM 48.0780 -120.3340 78° East 432 497 19,900  Descending FlightAware
04:41PM 48.0560 -120.1940 103° East 466 536 20,000  Climbing FlightAware
04:41PM 48.0300 -120.0620 106° East 476 548 19,900 -120 Descending FlightAware
04:42PM 48.0080 -119.9530 107° East 476 548 19,900  Level FlightAware
04:43PM 47.9870 -119.8540 108° East 476 548 19,900  Level FlightAware
04:43PM 47.9670 -119.7550 107° East 476 548 19,900  Level FlightAware
04:44PM 47.9470 -119.6560 107° East 476 548 19,900  Level FlightAware
04:45PM 47.9260 -119.5570 108° East 476 548 19,900  Level FlightAware
04:45PM 47.9070 -119.4610 106° East 476 548 19,900  Level FlightAware
04:45PM 47.9000 -119.4260 107° East 476 548 19,900  Level FlightAware
04:46PM 47.9025 -119.1533 107° East 472 543 19,900  Level Seattle Center
04:47PM 47.8797 -118.9608 100° East 473 544 20,000 120 Climbing Seattle Center
04:48PM 47.8544 -118.7694 101° East 473 544 20,200 -60 Climbing Seattle Center
04:49PM 47.8303 -118.5789 101° East 472 543 19,900 -60 Descending Seattle Center
04:50PM 47.8194 -118.3875 95° East 467 537 20,100  Climbing Seattle Center
04:51PM 47.8108 -118.1944 94° East 469 540 19,900 -120 Descending Seattle Center
04:52PM 47.8050 -118.0008 92° East 468 539 19,900  Level Seattle Center
04:53PM 47.8058 -117.8083 90° East 467 537 19,900  Level Seattle Center
04:54PM 47.7581 -117.6481 114° Southeast 463 533 19,900  Level Seattle Center
04:55PM 47.6692 -117.7508 218° Southwest 491 565 19,900 60 Level Seattle Center
04:56PM 47.6967 -117.9472 282° West 488 562 20,100  Climbing Seattle Center
04:57PM 47.7350 -118.1400 287° West 488 562 19,900 -60 Descending Seattle Center
04:58PM 47.7906 -118.3656 290° West 485 558 20,000 120 Climbing Seattle Center
04:59PM 47.8458 -118.5489 294° West 486 559 20,200  Climbing Seattle Center
05:00PM 47.8711 -118.7436 281° West 486 559 20,000 -120 Descending Seattle Center
05:01PM 47.8892 -118.9444 278° West 489 563 20,000  Level Seattle Center
05:07PM 48.0460 -120.0410 278° West 438 504 20,000  Level FlightAware
05:08PM 48.1050 -120.0170 15° North 432 497 20,000  Level FlightAware
05:08PM 48.1180 -120.0000 41° Northeast 422 486 20,000  Level FlightAware
05:09PM 48.1750 -119.9070 47° Northeast 422 486 20,000  Level FlightAware
05:09PM 48.2030 -119.8630 46° Northeast 422 486 20,000  Level FlightAware
05:11PM 48.0140 -120.1420 225° Southwest 358 412 20,000  Level FlightAware
05:12PM 48.0000 -120.2370 258° West 356 410 20,000  Level FlightAware
05:12PM 47.9900 -120.3030 257° West 357 411 20,000  Level FlightAware
05:13PM 47.9770 -120.3900 257° West 359 413 20,000  Level FlightAware
05:14PM 47.9530 -120.5480 257° West 368 423 20,000  Level FlightAware
05:14PM 47.9410 -120.6270 257° West 372 428 20,000  Level FlightAware
05:15PM 47.9270 -120.7240 258° West 378 435 20,000 -240 Level FlightAware
05:16PM 47.9120 -120.8190 257° West 383 441 19,700 -960 Descending FlightAware
05:16PM 47.8950 -120.9340 258° West 366 421 18,700 -1,380 Descending FlightAware
05:17PM 47.8730 -121.0730 257° West 350 403 17,400 -1,380 Descending FlightAware
05:18PM 47.8630 -121.1390 257° West 349 402 16,800 -1,320 Descending FlightAware
05:18PM 47.8570 -121.2130 263° West 337 388 16,100 -1,200 Descending FlightAware
05:19PM 47.8590 -121.2680 273° West 334 384 15,600 -1,380 Descending FlightAware
05:20PM 47.8670 -121.3990 275° West 332 382 14,200 -1,500 Descending FlightAware
05:20PM 47.8730 -121.4820 276° West 329 379 13,300 -1,560 Descending FlightAware
05:21PM 47.8780 -121.5710 275° West 324 373 12,200 -1,440 Descending FlightAware
05:22PM 47.8640 -121.6440 254° West 312 359 11,500 -1,680 Descending FlightAware
05:22PM 47.8130 -121.6960 214° Southwest 294 338 10,100 -2,760 Descending FlightAware
05:23PM 47.7670 -121.7220 201° Southwest 292 336 8,100 -2,760 Descending FlightAware
05:23PM 47.7320 -121.7410 200° South 285 328 7,200 -1,080 Descending FlightAware
05:24PM 47.6910 -121.7630 200° South 256 295 7,000 -240 Descending FlightAware
05:24PM 47.6610 -121.7790 200° South 248 285 7,000 -120 Level FlightAware
05:25PM 47.6270 -121.7980 201° Southwest 239 275 6,900 -420 Descending FlightAware
05:26PM 47.5960 -121.8160 201° Southwest 227 261 6,600 -660 Descending FlightAware
05:26PM 47.5720 -121.8290 200° South 217 250 6,300 -840 Descending FlightAware
05:26PM 47.5460 -121.8430 200° South 212 244 5,900 -960 Descending FlightAware
05:27PM 47.5240 -121.8540 199° South 209 241 5,500 -1,020 Descending FlightAware
05:27PM 47.5020 -121.8640 197° South 210 242 5,100 -480 Descending FlightAware
05:28PM 47.4650 -121.8820 198° South 209 241 5,000 -120 Descending FlightAware
05:28PM 47.4390 -121.8940 197° South 205 236 5,000  Level FlightAware
05:29PM 47.4150 -121.9060 199° South 195 224 5,000  Level FlightAware
05:29PM 47.3900 -121.9180 198° South 183 211 5,000  Level FlightAware
05:30PM 47.3670 -121.9300 199° South 184 212 5,000  Level FlightAware
05:30PM 47.3400 -121.9510 208° Southwest 186 214 5,000  Level FlightAware
05:31PM 47.3210 -121.9800 226° Southwest 187 215 5,000 -240 Level FlightAware
05:31PM 47.3160 -122.0130 257° West 186 214 4,800 -780 Descending FlightAware
05:32PM 47.3170 -122.0400 273° West 186 214 4,400 -960 Descending FlightAware
05:33PM 47.3260 -122.0980 283° West 164 189 3,700 -960 Descending FlightAware
05:33PM 47.3330 -122.1180 297° West 163 188 3,300 -600 Descending FlightAware
05:33PM 47.3410 -122.1380 301° West 163 188 3,300 -540 Level FlightAware
05:34PM 47.3770 -122.1740 326° Northwest 155 178 2,600 -480 Descending FlightAware
05:35PM 47.4000 -122.1930 331° Northwest 151 174 2,600  Level FlightAware
05:35PM 47.4080 -122.2000 329° Northwest 136 157 2,600  Level FlightAware
05:35PM 47.4200 -122.2100 331° Northwest 136 157 2,600 -660 Level FlightAware
05:37PM 47.4610 -122.2440 331° Northwest 129 148 1,500 -660 Descending FlightAware
05:37PM 47.4730 -122.2550 328° Northwest 129 148 1,500 -780 Level FlightAware
05:38PM 47.4990 -122.2760 331° Northwest 132 152 600 -780 Descending FlightAware
05:39PM 47.5250 -122.2983 331° Northwest 124 143 100 -480 Descending Seattle Center